createdAt,value
2022-08-24T11:24:13.126Z,1008.96
2022-08-24T11:25:13.113Z,1008.92
2022-08-24T11:26:13.095Z,1008.90
2022-08-24T11:27:13.093Z,1008.89
2022-08-24T11:28:13.085Z,1008.88
2022-08-24T11:29:13.083Z,1008.87
2022-08-24T11:30:13.057Z,1008.86
2022-08-24T11:31:13.093Z,1008.84
2022-08-24T11:32:13.034Z,1008.86
2022-08-24T11:33:20.086Z,1008.87
2022-08-24T11:34:13.016Z,1008.87
2022-08-24T11:35:13.048Z,1008.86
2022-08-24T11:36:12.997Z,1008.86
2022-08-24T11:37:12.997Z,1008.89
2022-08-24T11:38:12.998Z,1008.87
2022-08-24T11:39:12.984Z,1008.84
2022-08-24T11:40:13.042Z,1008.83
2022-08-24T11:41:12.958Z,1008.81
2022-08-24T11:42:12.958Z,1008.79
2022-08-24T11:43:12.956Z,1008.77
2022-08-24T11:44:12.939Z,1008.81
2022-08-24T11:45:12.926Z,1008.76
2022-08-24T11:46:12.973Z,1008.80
2022-08-24T11:47:12.916Z,1008.80
2022-08-24T11:48:12.894Z,1008.78
2022-08-24T11:49:12.903Z,1008.78
2022-08-24T11:50:12.889Z,1008.78
2022-08-24T11:51:12.871Z,1008.82
2022-08-24T11:52:12.863Z,1008.76
2022-08-24T11:53:12.969Z,1008.77
2022-08-24T11:54:12.846Z,1008.75
2022-08-24T11:55:12.849Z,1008.72
2022-08-24T11:56:14.489Z,1008.75
2022-08-24T11:57:12.821Z,1008.76
2022-08-24T11:58:12.843Z,1008.73
2022-08-24T11:59:12.808Z,1008.74
2022-08-24T12:00:12.801Z,1008.70
2022-08-24T12:01:12.793Z,1008.77
2022-08-24T12:02:12.958Z,1008.72
2022-08-24T12:03:12.925Z,1008.72
2022-08-24T12:04:12.774Z,1008.70
2022-08-24T12:05:14.031Z,1008.71
2022-08-24T12:06:12.767Z,1008.71
2022-08-24T12:07:12.744Z,1008.73
2022-08-24T12:08:12.749Z,1008.69
2022-08-24T12:09:12.745Z,1008.72
2022-08-24T12:10:12.732Z,1008.72
2022-08-24T12:11:12.728Z,1008.69
2022-08-24T12:12:12.717Z,1008.65
2022-08-24T12:13:12.714Z,1008.65
2022-08-24T12:14:12.695Z,1008.68
2022-08-24T12:15:12.689Z,1008.70
2022-08-24T12:16:12.708Z,1008.73
2022-08-24T12:17:12.683Z,1008.70
2022-08-24T12:18:12.676Z,1008.69
2022-08-24T12:19:12.664Z,1008.69
2022-08-24T12:20:12.657Z,1008.67
2022-08-24T12:21:12.901Z,1008.67
2022-08-24T12:22:12.635Z,1008.67
2022-08-24T12:23:12.639Z,1008.66
2022-08-24T12:24:12.621Z,1008.66
2022-08-24T12:25:12.616Z,1008.68
2022-08-24T12:26:12.619Z,1008.62
2022-08-24T12:27:12.611Z,1008.61
2022-08-24T12:28:12.602Z,1008.61
2022-08-24T12:29:12.585Z,1008.59
2022-08-24T12:30:12.580Z,1008.61
2022-08-24T12:31:12.628Z,1008.60
2022-08-24T12:32:12.574Z,1008.58
2022-08-24T12:33:12.575Z,1008.62
2022-08-24T12:34:12.549Z,1008.61
2022-08-24T12:35:12.541Z,1008.58
2022-08-24T12:36:12.553Z,1008.58
2022-08-24T12:37:16.337Z,1008.57
2022-08-24T12:38:12.536Z,1008.57
2022-08-24T12:39:12.525Z,1008.60
2022-08-24T12:40:12.558Z,1008.59
2022-08-24T12:41:19.024Z,1008.59
2022-08-24T12:42:16.797Z,1008.54
2022-08-24T12:43:12.530Z,1008.57
2022-08-24T12:44:12.493Z,1008.54
2022-08-24T12:45:12.482Z,1008.54
2022-08-24T12:46:12.542Z,1008.54
2022-08-24T12:47:13.427Z,1008.56
2022-08-24T12:48:12.488Z,1008.53
2022-08-24T12:49:12.458Z,1008.55
2022-08-24T12:50:12.445Z,1008.57
2022-08-24T12:51:12.445Z,1008.58
2022-08-24T12:52:12.439Z,1008.52
2022-08-24T12:53:14.136Z,1008.53
2022-08-24T12:54:12.419Z,1008.54
2022-08-24T12:55:12.407Z,1008.57
2022-08-24T12:56:12.405Z,1008.54
2022-08-24T12:57:12.411Z,1008.52
2022-08-24T12:59:12.386Z,1008.56
2022-08-24T13:00:12.378Z,1008.47
2022-08-24T13:01:12.469Z,1008.50
2022-08-24T13:02:12.416Z,1008.43
2022-08-24T13:03:12.382Z,1008.45
2022-08-24T13:04:12.365Z,1008.48
2022-08-24T13:05:12.357Z,1008.47
2022-08-24T13:06:12.345Z,1008.46
2022-08-24T13:07:12.346Z,1008.41
2022-08-24T13:08:12.354Z,1008.44
2022-08-24T13:09:12.336Z,1008.49
2022-08-24T13:10:12.336Z,1008.46
2022-08-24T13:11:12.320Z,1008.48
2022-08-24T13:12:12.310Z,1008.52
2022-08-24T13:13:12.335Z,1008.47
2022-08-24T13:14:12.300Z,1008.48
2022-08-24T13:15:12.298Z,1008.45
2022-08-24T13:16:12.325Z,1008.46
2022-08-24T13:17:12.288Z,1008.46
2022-08-24T13:18:12.291Z,1008.49
2022-08-24T13:19:12.271Z,1008.47
2022-08-24T13:20:12.285Z,1008.51
2022-08-24T13:21:12.259Z,1008.48
2022-08-24T13:22:12.269Z,1008.42
2022-08-24T13:23:12.263Z,1008.44
2022-08-24T13:24:15.599Z,1008.42
2022-08-24T13:25:12.239Z,1008.44
2022-08-24T13:26:12.232Z,1008.41
2022-08-24T13:27:12.237Z,1008.45
2022-08-24T13:28:12.267Z,1008.45
2022-08-24T13:29:12.226Z,1008.45
2022-08-24T13:30:12.253Z,1008.44
2022-08-24T13:31:12.240Z,1008.40
2022-08-24T13:32:12.211Z,1008.39
2022-08-24T13:33:12.205Z,1008.36
2022-08-24T13:34:12.215Z,1008.34
2022-08-24T13:35:12.200Z,1008.34
2022-08-24T13:36:12.200Z,1008.34
2022-08-24T13:37:12.183Z,1008.36
2022-08-24T13:38:12.203Z,1008.34
2022-08-24T13:39:12.184Z,1008.28
2022-08-24T13:40:12.273Z,1008.24
2022-08-24T13:41:12.165Z,1008.27
2022-08-24T13:42:12.172Z,1008.25
2022-08-24T13:43:12.218Z,1008.25
2022-08-24T13:44:12.154Z,1008.21
2022-08-24T13:45:12.149Z,1008.20
2022-08-24T13:46:13.355Z,1008.19
2022-08-24T13:47:12.144Z,1008.23
2022-08-24T13:48:12.150Z,1008.17
2022-08-24T13:49:12.137Z,1008.20
2022-08-24T13:50:12.151Z,1008.23
2022-08-24T13:51:12.129Z,1008.20
2022-08-24T13:52:12.126Z,1008.24
2022-08-24T13:53:12.145Z,1008.19
2022-08-24T13:54:19.992Z,1008.17
2022-08-24T13:55:12.121Z,1008.21
2022-08-24T13:56:12.110Z,1008.23
2022-08-24T13:57:12.105Z,1008.13
2022-08-24T13:58:12.124Z,1008.02
2022-08-24T14:08:17.320Z,1008.16
2022-08-24T14:09:17.307Z,1008.15
2022-08-24T14:10:17.292Z,1008.14
2022-08-24T14:11:17.304Z,1008.21
2022-08-24T14:12:17.277Z,1008.20
2022-08-24T14:13:17.296Z,1008.25
2022-08-24T14:14:17.268Z,1008.32
2022-08-24T14:15:17.276Z,1008.25
2022-08-24T14:16:17.284Z,1008.31
2022-08-24T14:17:19.362Z,1008.30
2022-08-24T14:18:17.262Z,1008.27
2022-08-24T14:19:17.245Z,1008.28
2022-08-24T14:20:21.986Z,1008.25
2022-08-24T14:21:17.981Z,1008.17
2022-08-24T14:22:17.240Z,1008.22
2022-08-24T14:23:17.241Z,1008.14
2022-08-24T14:24:17.225Z,1008.18
2022-08-24T14:25:17.223Z,1008.15
2022-08-24T14:26:17.225Z,1008.04
2022-08-24T14:27:17.224Z,1008.08
2022-08-24T14:28:17.224Z,1008.04
2022-08-24T14:29:17.229Z,1008.06
2022-08-24T14:30:17.206Z,1008.04
2022-08-24T14:31:17.252Z,1008.10
2022-08-24T14:32:17.197Z,1007.96
2022-08-24T14:33:17.244Z,1008.03
2022-08-24T14:34:17.205Z,1008.05
2022-08-24T14:35:17.203Z,1008.05
2022-08-24T14:36:17.205Z,1008.04
2022-08-24T14:37:17.191Z,1008.04
2022-08-24T14:38:17.196Z,1008.03
2022-08-24T14:39:17.208Z,1008.03
2022-08-24T14:40:17.252Z,1007.97
2022-08-24T14:41:17.183Z,1007.96
2022-08-24T14:42:17.188Z,1007.95
2022-08-24T14:43:20.267Z,1007.98
2022-08-24T14:44:17.179Z,1007.95
2022-08-24T14:45:17.185Z,1007.94
2022-08-24T14:46:17.253Z,1007.92
2022-08-24T14:47:17.173Z,1007.92
2022-08-24T14:48:17.194Z,1007.90
2022-08-24T14:49:17.171Z,1007.91
2022-08-24T14:50:17.178Z,1007.91
2022-08-24T14:51:17.170Z,1007.86
2022-08-24T14:52:17.178Z,1007.93
2022-08-24T14:53:17.190Z,1007.84
2022-08-24T14:54:17.178Z,1007.89
2022-08-24T14:55:17.172Z,1007.90
2022-08-24T14:56:17.178Z,1007.88
2022-08-24T14:57:17.181Z,1007.87
2022-08-24T14:58:17.179Z,1007.87
2022-08-24T14:59:17.180Z,1007.87
2022-08-24T15:00:17.168Z,1007.81
2022-08-24T15:01:17.243Z,1007.80
2022-08-24T15:02:17.168Z,1007.80
2022-08-24T15:03:17.193Z,1007.79
2022-08-24T15:04:17.217Z,1007.79
2022-08-24T15:05:17.210Z,1007.78
2022-08-24T15:06:26.919Z,1007.74
2022-08-24T15:07:17.191Z,1007.71
2022-08-24T15:08:18.192Z,1007.67
2022-08-24T15:09:17.167Z,1007.63
2022-08-24T15:10:17.168Z,1007.64
2022-08-24T15:11:17.182Z,1007.61
2022-08-24T15:12:17.185Z,1007.60
2022-08-24T15:13:17.193Z,1007.63
2022-08-24T15:14:19.888Z,1007.58
2022-08-24T15:15:17.177Z,1007.52
2022-08-24T15:16:17.205Z,1007.46
2022-08-24T15:17:17.181Z,1007.50
2022-08-24T15:18:17.194Z,1007.67
2022-08-24T15:19:17.178Z,1007.80
2022-08-24T15:20:17.179Z,1007.90
2022-08-24T15:21:17.173Z,1008.02
2022-08-24T15:22:17.174Z,1008.10
2022-08-24T15:23:17.185Z,1008.13
2022-08-24T15:24:17.192Z,1008.07
2022-08-24T15:25:19.191Z,1007.99
2022-08-24T15:26:17.165Z,1007.89
2022-08-24T15:27:17.170Z,1008.06
2022-08-24T15:28:17.175Z,1008.09
2022-08-24T15:29:17.163Z,1008.08
2022-08-24T15:30:17.158Z,1008.08
2022-08-24T15:31:17.209Z,1008.05
2022-08-24T15:32:17.157Z,1008.04
2022-08-24T15:33:19.350Z,1008.01
2022-08-24T15:34:17.146Z,1008.02
2022-08-24T15:35:17.157Z,1007.93
2022-08-24T15:36:17.151Z,1008.02
2022-08-24T15:37:17.148Z,1008.06
2022-08-24T15:38:17.963Z,1008.02
2022-08-24T15:39:17.144Z,1007.88
2022-08-24T15:40:17.215Z,1008.07
2022-08-24T15:41:17.145Z,1008.17
2022-08-24T15:42:17.153Z,1008.14
2022-08-24T15:43:17.169Z,1007.76
2022-08-24T15:44:21.311Z,1007.50
2022-08-24T15:45:17.154Z,1007.51
2022-08-24T15:46:17.227Z,1007.49
2022-08-24T15:56:32.405Z,1007.88
2022-08-24T15:57:32.405Z,1007.75
2022-08-24T16:55:23.070Z,1007.28
2022-08-24T16:56:23.057Z,1007.26
2022-08-24T16:59:43.614Z,1007.28
2022-08-24T17:00:43.619Z,1007.29
2022-08-24T17:01:43.662Z,1007.30
2022-08-24T17:02:43.633Z,1007.28
